createdAt,value
2022-09-04T00:02:05.431Z,15.70
2022-09-04T00:04:46.616Z,15.60
2022-09-04T00:07:54.323Z,15.60
2022-09-04T00:10:36.173Z,15.60
2022-09-04T00:13:28.426Z,15.50
2022-09-04T00:16:03.800Z,15.40
2022-09-04T00:18:33.463Z,15.30
2022-09-04T00:21:05.376Z,15.30
2022-09-04T00:23:34.726Z,15.30
2022-09-04T00:26:42.821Z,15.20
2022-09-04T00:29:21.306Z,15.10
2022-09-04T00:31:59.139Z,15.10
2022-09-04T00:35:18.297Z,15.00
2022-09-04T00:37:58.936Z,15.00
2022-09-04T00:40:38.117Z,15.00
2022-09-04T00:43:29.540Z,14.90
2022-09-04T00:46:30.399Z,14.90
2022-09-04T00:49:03.153Z,14.90
2022-09-04T00:52:07.498Z,14.80
2022-09-04T00:54:52.251Z,14.80
2022-09-04T00:57:37.040Z,14.80
2022-09-04T01:00:16.364Z,14.70
2022-09-04T01:03:03.775Z,14.70
2022-09-04T01:05:52.151Z,14.60
2022-09-04T01:08:47.026Z,14.60
2022-09-04T01:11:24.589Z,14.50
2022-09-04T01:13:51.730Z,14.50
2022-09-04T01:16:48.079Z,14.40
2022-09-04T01:19:32.758Z,14.40
2022-09-04T01:22:30.446Z,14.30
2022-09-04T01:25:24.559Z,14.30
2022-09-04T01:28:29.088Z,14.30
2022-09-04T01:31:08.090Z,14.20
2022-09-04T01:33:41.631Z,14.10
2022-09-04T01:36:14.793Z,14.10
2022-09-04T01:38:53.452Z,14.10
2022-09-04T01:41:38.741Z,14.00
2022-09-04T01:44:08.626Z,14.00
2022-09-04T01:47:12.693Z,14.00
2022-09-04T01:49:43.806Z,13.90
2022-09-04T01:52:19.280Z,13.90
2022-09-04T01:55:13.967Z,13.90
2022-09-04T01:58:19.111Z,13.80
2022-09-04T02:00:51.791Z,13.80
2022-09-04T02:03:34.414Z,13.80
2022-09-04T02:06:27.659Z,13.70
2022-09-04T02:09:00.181Z,13.70
2022-09-04T02:11:31.610Z,13.60
2022-09-04T02:14:08.741Z,13.60
2022-09-04T02:17:04.051Z,13.60
2022-09-04T02:19:58.521Z,13.50
2022-09-04T02:22:45.098Z,13.50
2022-09-04T02:25:23.463Z,13.40
2022-09-04T02:27:53.473Z,13.40
2022-09-04T02:30:21.182Z,13.40
2022-09-04T02:32:59.562Z,13.40
2022-09-04T02:35:57.140Z,13.30
2022-09-04T02:38:39.172Z,13.30
2022-09-04T02:41:20.398Z,13.30
2022-09-04T02:44:07.833Z,13.20
2022-09-04T02:46:53.317Z,13.20
2022-09-04T02:49:55.367Z,13.20
2022-09-04T02:52:44.027Z,13.20
2022-09-04T02:55:52.549Z,13.10
2022-09-04T02:58:37.084Z,13.10
2022-09-04T03:01:22.800Z,13.10
2022-09-04T03:04:15.487Z,13.10
2022-09-04T03:06:53.957Z,13.10
2022-09-04T03:09:36.341Z,13.00
2022-09-04T03:12:40.232Z,13.00
2022-09-04T03:15:13.395Z,12.90
2022-09-04T03:17:40.073Z,12.90
2022-09-04T03:20:23.007Z,12.90
2022-09-04T03:23:25.779Z,12.80
2022-09-04T03:26:11.331Z,12.80
2022-09-04T03:29:02.960Z,12.80
2022-09-04T03:32:00.839Z,12.70
2022-09-04T03:35:22.671Z,12.70
2022-09-04T03:37:50.170Z,12.60
2022-09-04T03:40:33.650Z,12.60
2022-09-04T03:43:18.500Z,12.60
2022-09-04T03:46:18.731Z,12.60
2022-09-04T03:49:00.255Z,12.60
2022-09-04T03:51:31.552Z,12.60
2022-09-04T03:54:15.556Z,12.50
2022-09-04T03:56:57.258Z,12.50
2022-09-04T03:59:42.842Z,12.40
2022-09-04T04:02:38.543Z,12.40
2022-09-04T04:05:21.518Z,12.40
2022-09-04T04:08:13.850Z,12.40
2022-09-04T04:10:58.194Z,12.40
2022-09-04T04:13:36.109Z,12.30
2022-09-04T04:16:27.658Z,12.30
2022-09-04T04:19:03.801Z,12.30
2022-09-04T04:21:59.722Z,12.20
2022-09-04T04:24:49.383Z,12.20
2022-09-04T04:27:33.452Z,12.20
2022-09-04T04:30:04.259Z,12.20
2022-09-04T04:33:06.279Z,12.20
2022-09-04T04:35:40.383Z,12.20
2022-09-04T04:38:47.525Z,12.20
2022-09-04T04:41:25.088Z,12.20
2022-09-04T04:44:12.404Z,12.10
2022-09-04T04:47:07.916Z,12.20
2022-09-04T04:49:45.548Z,12.20
2022-09-04T04:52:38.902Z,12.10
2022-09-04T04:55:49.234Z,12.10
2022-09-04T04:58:27.230Z,12.10
2022-09-04T05:01:22.670Z,12.10
2022-09-04T05:04:16.079Z,12.10
2022-09-04T05:06:58.411Z,12.10
2022-09-04T05:09:37.707Z,12.10
2022-09-04T05:12:22.491Z,12.00
2022-09-04T05:15:04.210Z,12.10
2022-09-04T05:17:42.796Z,12.00
2022-09-04T05:20:47.926Z,12.00
2022-09-04T05:23:39.500Z,12.00
2022-09-04T05:26:47.155Z,12.00
2022-09-04T05:29:35.215Z,11.90
2022-09-04T05:32:18.223Z,11.90
2022-09-04T05:34:51.654Z,11.90
2022-09-04T05:37:40.405Z,11.90
2022-09-04T05:40:38.547Z,11.90
2022-09-04T05:43:16.511Z,11.90
2022-09-04T05:45:57.231Z,11.90
2022-09-04T05:48:34.263Z,11.90
2022-09-04T05:51:26.663Z,11.90
2022-09-04T05:54:00.371Z,11.90
2022-09-04T05:56:45.515Z,11.90
2022-09-04T05:59:47.506Z,11.90
2022-09-04T06:02:39.015Z,11.90
2022-09-04T06:05:21.222Z,11.90
2022-09-04T06:07:50.813Z,11.90
2022-09-04T06:10:41.157Z,12.00
2022-09-04T06:13:30.815Z,12.00
2022-09-04T06:16:22.519Z,12.00
2022-09-04T06:19:22.357Z,12.10
2022-09-04T06:22:10.130Z,12.10
2022-09-04T06:24:59.639Z,12.20
2022-09-04T06:27:52.931Z,12.20
2022-09-04T06:30:19.960Z,12.30
2022-09-04T06:33:20.142Z,12.30
2022-09-04T06:36:04.881Z,12.30
2022-09-04T06:38:44.312Z,12.40
2022-09-04T06:41:20.033Z,12.40
2022-09-04T06:44:11.514Z,12.50
2022-09-04T06:46:47.648Z,12.50
2022-09-04T06:49:30.499Z,12.60
2022-09-04T06:52:07.484Z,12.60
2022-09-04T06:54:55.864Z,12.60
2022-09-04T06:58:10.915Z,12.70
2022-09-04T07:00:58.379Z,12.80
2022-09-04T07:03:36.547Z,12.80
2022-09-04T07:06:21.191Z,12.90
2022-09-04T07:09:23.019Z,13.00
2022-09-04T07:12:03.931Z,13.10
2022-09-04T07:14:49.435Z,13.20
2022-09-04T07:17:29.655Z,13.30
2022-09-04T07:20:34.633Z,13.40
2022-09-04T07:23:17.400Z,13.50
2022-09-04T07:26:26.836Z,13.50
2022-09-04T07:29:16.082Z,13.70
2022-09-04T07:32:18.887Z,13.80
2022-09-04T07:35:13.139Z,13.90
2022-09-04T07:38:01.127Z,14.10
2022-09-04T07:40:44.860Z,14.20
2022-09-04T07:43:21.329Z,14.40
2022-09-04T07:46:05.337Z,14.50
2022-09-04T07:48:48.445Z,14.70
2022-09-04T07:51:22.194Z,14.80
2022-09-04T07:54:38.169Z,15.00
2022-09-04T07:57:29.217Z,15.10
2022-09-04T08:00:10.374Z,15.30
2022-09-04T08:02:46.309Z,15.50
2022-09-04T08:05:24.232Z,15.70
2022-09-04T08:08:37.914Z,15.90
2022-09-04T08:11:04.888Z,16.10
2022-09-04T08:14:06.371Z,16.20
2022-09-04T08:16:53.359Z,16.40
2022-09-04T08:19:27.241Z,16.60
2022-09-04T08:21:55.643Z,16.80
2022-09-04T08:24:28.340Z,17.00
2022-09-04T08:27:04.138Z,17.20
2022-09-04T08:29:42.732Z,17.30
2022-09-04T08:32:32.451Z,17.50
2022-09-04T08:35:20.103Z,17.70
2022-09-04T08:37:46.670Z,17.90
2022-09-04T08:40:54.989Z,18.10
2022-09-04T08:43:39.999Z,18.30
2022-09-04T08:46:23.158Z,18.50
2022-09-04T08:49:36.177Z,18.70
2022-09-04T08:52:42.744Z,18.90
2022-09-04T08:55:27.619Z,19.10
2022-09-04T08:58:16.044Z,19.40
2022-09-04T09:01:19.906Z,19.50
2022-09-04T09:03:55.599Z,19.70
2022-09-04T09:06:50.359Z,19.80
2022-09-04T09:09:45.312Z,20.00
2022-09-04T09:12:41.084Z,20.20
2022-09-04T09:15:40.746Z,20.50
2022-09-04T09:18:30.200Z,20.70
2022-09-04T09:21:05.788Z,20.90
2022-09-04T09:23:44.387Z,21.10
2022-09-04T09:26:24.062Z,21.20
2022-09-04T09:29:16.238Z,21.50
2022-09-04T09:32:03.941Z,21.70
2022-09-04T09:35:06.886Z,21.80
2022-09-04T09:37:53.823Z,22.00
2022-09-04T09:41:06.435Z,22.20
2022-09-04T09:44:01.491Z,22.40
2022-09-04T09:46:38.433Z,22.70
2022-09-04T09:49:15.210Z,22.90
2022-09-04T09:52:00.385Z,23.10
2022-09-04T09:55:07.923Z,23.30
2022-09-04T09:57:52.721Z,23.50
2022-09-04T10:00:23.609Z,23.60
2022-09-04T10:03:24.327Z,23.70
2022-09-04T10:06:00.030Z,24.00
2022-09-04T10:08:58.080Z,24.20
2022-09-04T10:11:55.313Z,24.40
2022-09-04T10:14:37.442Z,24.70
2022-09-04T10:17:09.929Z,25.00
2022-09-04T10:20:11.509Z,25.10
2022-09-04T10:22:51.524Z,25.30
2022-09-04T10:25:35.168Z,25.50
2022-09-04T10:28:40.783Z,25.70
2022-09-04T10:31:19.462Z,25.90
2022-09-04T10:34:11.527Z,26.00
2022-09-04T10:36:54.074Z,26.10
2022-09-04T10:40:43.133Z,26.10
2022-09-04T10:43:29.771Z,26.30
2022-09-04T10:46:22.715Z,26.50
2022-09-04T10:49:26.007Z,26.60
2022-09-04T10:52:14.823Z,26.80
2022-09-04T10:55:14.793Z,27.10
2022-09-04T10:58:12.079Z,27.30
2022-09-04T11:01:18.558Z,27.50
2022-09-04T11:04:27.127Z,27.70
2022-09-04T11:07:28.844Z,27.80
2022-09-04T11:10:26.102Z,27.80
2022-09-04T11:13:23.024Z,27.90
2022-09-04T11:16:09.462Z,27.90
2022-09-04T11:18:55.081Z,27.80
2022-09-04T11:21:31.124Z,27.80
2022-09-04T11:24:17.935Z,27.80
2022-09-04T11:27:04.804Z,27.80
2022-09-04T11:29:41.195Z,27.90
2022-09-04T11:32:48.532Z,28.00
2022-09-04T11:35:33.845Z,28.20
2022-09-04T11:38:13.888Z,28.30
2022-09-04T11:41:07.452Z,28.40
2022-09-04T11:44:10.159Z,28.40
2022-09-04T11:47:06.681Z,28.70
2022-09-04T11:49:40.721Z,28.90
2022-09-04T11:52:48.588Z,29.10
2022-09-04T11:55:52.885Z,29.40
2022-09-04T11:58:31.705Z,29.70
2022-09-04T12:01:26.905Z,29.90
2022-09-04T12:04:05.669Z,30.20
2022-09-04T12:06:36.244Z,30.20
2022-09-04T12:09:36.652Z,30.30
2022-09-04T12:12:22.533Z,30.40
2022-09-04T12:15:07.606Z,30.40
2022-09-04T12:17:50.052Z,30.40
2022-09-04T12:20:42.540Z,30.40
2022-09-04T12:23:30.825Z,30.40
2022-09-04T12:26:22.609Z,30.50
2022-09-04T12:29:27.912Z,30.50
2022-09-04T12:32:03.564Z,30.50
2022-09-04T12:34:51.933Z,30.40
2022-09-04T12:37:33.909Z,30.40
2022-09-04T12:40:12.903Z,30.30
2022-09-04T12:43:00.739Z,30.30
2022-09-04T12:46:05.907Z,30.20
2022-09-04T12:48:57.858Z,30.00
2022-09-04T12:51:26.726Z,29.90
2022-09-04T12:54:05.204Z,29.90
2022-09-04T12:56:53.834Z,29.90
2022-09-04T12:59:46.474Z,29.90
2022-09-04T13:02:34.091Z,29.90
2022-09-04T13:05:15.708Z,29.90
2022-09-04T13:08:08.318Z,30.00
2022-09-04T13:10:41.699Z,30.00
2022-09-04T13:13:23.549Z,30.10
2022-09-04T13:16:20.342Z,30.40
2022-09-04T13:18:53.891Z,30.60
2022-09-04T13:21:35.377Z,30.60
2022-09-04T13:24:35.734Z,30.70
2022-09-04T13:27:09.070Z,30.90
2022-09-04T13:29:53.487Z,31.20
2022-09-04T13:32:45.191Z,31.40
2022-09-04T13:35:36.445Z,31.70
2022-09-04T13:38:15.119Z,32.00
2022-09-04T13:41:12.726Z,32.10
2022-09-04T13:44:13.555Z,32.30
2022-09-04T13:46:50.456Z,32.50
2022-09-04T13:49:32.714Z,32.70
2022-09-04T13:52:07.362Z,33.00
2022-09-04T13:54:39.711Z,33.20
2022-09-04T13:57:28.383Z,33.30
2022-09-04T14:00:00.167Z,33.60
2022-09-04T14:02:30.163Z,33.60
2022-09-04T14:05:04.686Z,33.60
2022-09-04T14:07:36.247Z,33.50
2022-09-04T14:10:20.680Z,33.50
2022-09-04T14:12:53.663Z,33.60
2022-09-04T14:15:32.788Z,33.70
2022-09-04T14:18:17.707Z,33.80
2022-09-04T14:21:01.117Z,34.00
2022-09-04T14:23:47.804Z,34.00
2022-09-04T14:26:29.444Z,34.00
2022-09-04T14:29:22.312Z,34.10
2022-09-04T14:32:23.992Z,34.10
2022-09-04T14:35:13.811Z,34.00
2022-09-04T14:37:51.992Z,33.90
2022-09-04T14:40:37.329Z,34.00
2022-09-04T14:43:32.524Z,34.00
2022-09-04T14:46:34.944Z,34.10
2022-09-04T14:49:14.508Z,34.10
2022-09-04T14:51:45.873Z,34.10
2022-09-04T14:54:30.536Z,34.10
2022-09-04T14:57:04.377Z,34.00
2022-09-04T14:59:37.009Z,33.90
2022-09-04T15:02:18.558Z,33.80
2022-09-04T15:04:59.041Z,33.80
2022-09-04T15:07:50.504Z,33.80
2022-09-04T15:10:50.455Z,33.90
2022-09-04T15:13:30.159Z,34.00
2022-09-04T15:16:10.930Z,34.10
2022-09-04T15:18:48.232Z,34.10
2022-09-04T15:21:38.651Z,34.20
2022-09-04T15:24:17.456Z,34.40
2022-09-04T15:26:55.661Z,34.60
2022-09-04T15:29:26.790Z,34.70
2022-09-04T15:32:04.252Z,34.70
2022-09-04T15:34:36.773Z,34.80
2022-09-04T15:37:14.876Z,34.80
2022-09-04T15:40:13.954Z,34.80
2022-09-04T15:42:59.244Z,34.80
2022-09-04T15:45:31.312Z,34.70
2022-09-04T15:48:19.753Z,34.60
2022-09-04T15:50:58.576Z,34.50
2022-09-04T15:53:37.359Z,34.40
2022-09-04T15:56:21.594Z,34.30
2022-09-04T15:59:18.258Z,34.40
2022-09-04T16:02:20.087Z,34.30
2022-09-04T16:05:11.522Z,34.30
2022-09-04T16:07:41.371Z,34.20
2022-09-04T16:10:16.720Z,34.30
2022-09-04T16:13:09.321Z,34.20
2022-09-04T16:15:42.857Z,34.30
2022-09-04T16:18:18.392Z,34.30
2022-09-04T16:21:04.289Z,34.30
2022-09-04T16:23:38.232Z,34.10
2022-09-04T16:26:14.914Z,34.00
2022-09-04T16:28:51.244Z,34.00
2022-09-04T16:31:30.095Z,33.90
2022-09-04T16:34:26.808Z,33.80
2022-09-04T16:37:11.610Z,33.60
2022-09-04T16:40:08.513Z,33.50
2022-09-04T16:42:41.772Z,33.40
2022-09-04T16:45:25.296Z,33.30
2022-09-04T16:47:55.121Z,33.20
2022-09-04T16:50:30.415Z,33.00
2022-09-04T16:53:13.503Z,32.90
2022-09-04T16:56:07.308Z,32.80
2022-09-04T16:58:54.609Z,32.80
2022-09-04T17:01:41.013Z,32.70
2022-09-04T17:04:14.414Z,32.60
2022-09-04T17:06:57.348Z,32.50
2022-09-04T17:09:32.054Z,32.20
2022-09-04T17:12:16.228Z,32.10
2022-09-04T17:15:07.786Z,31.90
2022-09-04T17:17:40.960Z,31.70
2022-09-04T17:20:09.681Z,31.60
2022-09-04T17:28:59.806Z,31.40
2022-09-04T17:29:09.210Z,31.40
2022-09-04T17:29:29.847Z,31.30
2022-09-04T17:31:52.987Z,31.20
2022-09-04T17:40:35.450Z,31.10
2022-09-04T17:40:51.162Z,31.00
2022-09-04T17:41:34.749Z,30.90
2022-09-04T17:43:22.194Z,30.80
2022-09-04T17:46:15.800Z,30.70
2022-09-04T17:48:44.396Z,30.60
2022-09-04T17:51:25.578Z,30.50
2022-09-04T17:54:03.003Z,30.40
2022-09-04T17:56:37.812Z,30.30
2022-09-04T17:59:16.084Z,30.10
2022-09-04T18:01:59.182Z,29.90
2022-09-04T18:05:03.414Z,29.60
2022-09-04T18:08:08.190Z,29.40
2022-09-04T18:10:34.263Z,29.30
2022-09-04T18:13:38.668Z,29.20
2022-09-04T18:16:26.028Z,29.10
2022-09-04T18:18:58.496Z,28.90
2022-09-04T18:21:53.932Z,28.80
2022-09-04T18:24:43.787Z,28.70
2022-09-04T18:27:20.845Z,28.60
2022-09-04T18:36:06.368Z,28.60
2022-09-04T18:37:20.408Z,28.40
2022-09-04T18:37:26.720Z,28.50
2022-09-04T18:39:10.058Z,28.30
2022-09-04T18:46:21.324Z,28.20
2022-09-04T18:50:22.375Z,28.00
2022-09-04T18:50:44.666Z,27.90
2022-09-04T18:51:14.682Z,27.80
2022-09-04T18:53:52.684Z,27.60
2022-09-04T18:56:26.369Z,27.50
2022-09-04T18:59:18.331Z,27.40
2022-09-04T19:01:47.582Z,27.30
2022-09-04T19:04:43.309Z,27.20
2022-09-04T19:07:31.643Z,27.00
2022-09-04T19:10:38.235Z,26.90
2022-09-04T19:13:41.259Z,26.80
2022-09-04T19:16:17.188Z,26.70
2022-09-04T19:19:04.527Z,26.50
2022-09-04T19:21:57.833Z,26.50
2022-09-04T19:24:51.627Z,26.40
2022-09-04T19:27:36.512Z,26.30
2022-09-04T19:30:18.630Z,26.20
2022-09-04T19:33:02.762Z,26.00
2022-09-04T19:35:30.213Z,25.90
2022-09-04T19:43:12.966Z,25.90
2022-09-04T19:46:06.218Z,25.70
2022-09-04T19:46:11.145Z,25.80
2022-09-04T19:47:09.585Z,25.60
2022-09-04T19:53:17.854Z,25.50
2022-09-04T19:53:40.375Z,25.40
2022-09-04T19:56:54.898Z,25.30
2022-09-04T19:59:33.691Z,25.10
2022-09-04T20:02:08.093Z,25.00
2022-09-04T20:04:41.322Z,24.90
2022-09-04T20:07:25.873Z,24.80
2022-09-04T20:09:57.365Z,24.70
2022-09-04T20:12:27.631Z,24.60
2022-09-04T20:14:57.128Z,24.60
2022-09-04T20:17:33.255Z,24.50
2022-09-04T20:20:05.829Z,24.40
2022-09-04T20:22:47.948Z,24.30
2022-09-04T20:25:29.653Z,24.20
2022-09-04T20:28:00.428Z,24.10
2022-09-04T20:30:29.793Z,24.00
2022-09-04T20:33:24.266Z,23.90
2022-09-04T20:36:04.679Z,23.80
2022-09-04T20:39:08.675Z,23.70
2022-09-04T20:41:55.794Z,23.60
2022-09-04T20:44:32.030Z,23.50
2022-09-04T20:52:40.907Z,23.40
2022-09-04T20:52:54.034Z,23.30
2022-09-04T20:53:20.491Z,23.20
2022-09-04T20:57:46.945Z,23.00
2022-09-04T21:03:21.877Z,22.80
2022-09-04T21:03:23.359Z,22.90
2022-09-04T21:06:08.143Z,22.70
2022-09-04T21:08:40.867Z,22.60
2022-09-04T21:11:39.383Z,22.50
2022-09-04T21:14:14.535Z,22.40
2022-09-04T21:17:33.369Z,22.30
2022-09-04T21:20:30.183Z,22.20
2022-09-04T21:23:11.914Z,22.10
2022-09-04T21:26:02.607Z,22.00
2022-09-04T21:28:53.375Z,21.90
2022-09-04T21:31:57.248Z,21.90
2022-09-04T21:34:51.854Z,21.80
2022-09-04T21:37:44.958Z,21.70
2022-09-04T21:40:49.729Z,21.60
2022-09-04T21:43:48.023Z,21.50
2022-09-04T21:46:42.190Z,21.50
2022-09-04T21:49:46.555Z,21.40
2022-09-04T21:52:24.470Z,21.30
2022-09-04T21:57:00.056Z,21.20
2022-09-04T22:02:35.218Z,21.10
2022-09-04T22:02:47.662Z,21.10
2022-09-04T22:04:38.336Z,21.00
2022-09-04T22:11:50.265Z,20.90
2022-09-04T22:13:32.890Z,20.80
2022-09-04T22:13:51.310Z,20.70
2022-09-04T22:16:22.385Z,20.60
2022-09-04T22:19:16.655Z,20.60
2022-09-04T22:22:03.603Z,20.50
2022-09-04T22:25:09.575Z,20.50
2022-09-04T22:28:12.159Z,20.40
2022-09-04T22:31:08.882Z,20.30
2022-09-04T22:34:15.405Z,20.20
2022-09-04T22:37:17.311Z,20.20
2022-09-04T22:40:31.491Z,20.10
2022-09-04T22:43:07.381Z,20.00
2022-09-04T22:45:46.245Z,19.90
2022-09-04T22:48:40.832Z,19.90
2022-09-04T22:51:20.876Z,19.80
2022-09-04T22:54:32.695Z,19.80
2022-09-04T22:57:11.388Z,19.80
2022-09-04T23:00:04.556Z,19.70
2022-09-04T23:03:07.185Z,19.60
2022-09-04T23:05:48.045Z,19.60
2022-09-04T23:13:44.566Z,19.50
2022-09-04T23:13:57.110Z,19.50
2022-09-04T23:14:53.635Z,19.50
2022-09-04T23:21:13.560Z,19.40
2022-09-04T23:26:45.516Z,19.30
2022-09-04T23:26:54.235Z,19.30
2022-09-04T23:27:52.290Z,19.20
2022-09-04T23:30:25.773Z,19.20
2022-09-04T23:33:05.842Z,19.10
2022-09-04T23:35:56.471Z,19.10
2022-09-04T23:38:51.396Z,19.10
2022-09-04T23:41:36.350Z,19.00
2022-09-04T23:44:25.787Z,19.00
2022-09-04T23:47:48.371Z,18.90
2022-09-04T23:50:50.160Z,18.80
2022-09-04T23:53:41.632Z,18.80
2022-09-04T23:56:47.129Z,18.80
2022-09-04T23:59:38.170Z,18.70
